sensor_id;sensor_type;location;lat;lon;timestamp;P1;durP1;ratioP1;P2;durP2;ratioP2
11078;SDS011;5592;49.234;7.268;2023-03-07T00:01:20;22.27;;;12.90;;
11078;SDS011;5592;49.234;7.268;2023-03-07T00:03:54;27.73;;;14.20;;
11078;SDS011;5592;49.234;7.268;2023-03-07T00:06:20;28.70;;;14.97;;
11078;SDS011;5592;49.234;7.268;2023-03-07T00:08:49;30.20;;;14.90;;
11078;SDS011;5592;49.234;7.268;2023-03-07T00:11:20;29.40;;;13.23;;
11078;SDS011;5592;49.234;7.268;2023-03-07T00:13:46;26.50;;;15.30;;
11078;SDS011;5592;49.234;7.268;2023-03-07T00:16:13;24.90;;;14.33;;
11078;SDS011;5592;49.234;7.268;2023-03-07T00:18:41;28.47;;;15.10;;
11078;SDS011;5592;49.234;7.268;2023-03-07T00:21:08;26.93;;;15.00;;
11078;SDS011;5592;49.234;7.268;2023-03-07T00:23:37;28.40;;;15.10;;
11078;SDS011;5592;49.234;7.268;2023-03-07T00:26:05;27.70;;;14.30;;
11078;SDS011;5592;49.234;7.268;2023-03-07T00:28:37;28.93;;;14.27;;
11078;SDS011;5592;49.234;7.268;2023-03-07T00:31:05;27.03;;;14.87;;
11078;SDS011;5592;49.234;7.268;2023-03-07T00:33:32;28.87;;;14.70;;
11078;SDS011;5592;49.234;7.268;2023-03-07T00:35:59;27.53;;;15.03;;
11078;SDS011;5592;49.234;7.268;2023-03-07T00:38:27;34.67;;;15.90;;
11078;SDS011;5592;49.234;7.268;2023-03-07T00:43:26;25.87;;;14.70;;
11078;SDS011;5592;49.234;7.268;2023-03-07T00:45:53;31.33;;;16.30;;
11078;SDS011;5592;49.234;7.268;2023-03-07T00:48:19;27.53;;;16.20;;
11078;SDS011;5592;49.234;7.268;2023-03-07T00:50:45;30.63;;;16.13;;
11078;SDS011;5592;49.234;7.268;2023-03-07T00:53:11;32.13;;;15.57;;
11078;SDS011;5592;49.234;7.268;2023-03-07T00:55:39;29.77;;;15.17;;
11078;SDS011;5592;49.234;7.268;2023-03-07T00:58:05;30.60;;;15.60;;
11078;SDS011;5592;49.234;7.268;2023-03-07T01:00:31;27.23;;;14.50;;
11078;SDS011;5592;49.234;7.268;2023-03-07T01:02:57;30.00;;;15.40;;
11078;SDS011;5592;49.234;7.268;2023-03-07T01:05:26;28.27;;;15.67;;
11078;SDS011;5592;49.234;7.268;2023-03-07T01:07:52;28.70;;;15.73;;
11078;SDS011;5592;49.234;7.268;2023-03-07T01:10:17;29.60;;;15.27;;
11078;SDS011;5592;49.234;7.268;2023-03-07T01:12:43;27.60;;;15.20;;
11078;SDS011;5592;49.234;7.268;2023-03-07T01:15:08;29.50;;;15.27;;
11078;SDS011;5592;49.234;7.268;2023-03-07T01:17:34;29.20;;;15.53;;
11078;SDS011;5592;49.234;7.268;2023-03-07T01:20:00;27.80;;;15.37;;
11078;SDS011;5592;49.234;7.268;2023-03-07T01:22:29;26.07;;;14.80;;
11078;SDS011;5592;49.234;7.268;2023-03-07T01:24:55;25.27;;;15.03;;
11078;SDS011;5592;49.234;7.268;2023-03-07T01:27:21;32.63;;;15.70;;
11078;SDS011;5592;49.234;7.268;2023-03-07T01:29:46;31.83;;;16.50;;
11078;SDS011;5592;49.234;7.268;2023-03-07T01:32:12;29.07;;;14.93;;
11078;SDS011;5592;49.234;7.268;2023-03-07T01:34:37;29.17;;;15.57;;
11078;SDS011;5592;49.234;7.268;2023-03-07T01:37:03;31.10;;;16.87;;
11078;SDS011;5592;49.234;7.268;2023-03-07T01:39:29;31.83;;;16.50;;
11078;SDS011;5592;49.234;7.268;2023-03-07T01:41:54;29.13;;;14.97;;
11078;SDS011;5592;49.234;7.268;2023-03-07T01:44:21;35.37;;;15.50;;
11078;SDS011;5592;49.234;7.268;2023-03-07T01:46:50;29.43;;;15.17;;
11078;SDS011;5592;49.234;7.268;2023-03-07T01:52:25;28.63;;;15.07;;
11078;SDS011;5592;49.234;7.268;2023-03-07T01:54:59;30.10;;;15.13;;
11078;SDS011;5592;49.234;7.268;2023-03-07T01:57:36;29.90;;;15.50;;
11078;SDS011;5592;49.234;7.268;2023-03-07T02:00:04;37.87;;;17.90;;
11078;SDS011;5592;49.234;7.268;2023-03-07T02:05:14;36.88;;;17.83;;
11078;SDS011;5592;49.234;7.268;2023-03-07T02:07:47;36.50;;;15.63;;
11078;SDS011;5592;49.234;7.268;2023-03-07T02:10:15;27.57;;;15.47;;
11078;SDS011;5592;49.234;7.268;2023-03-07T02:12:45;35.30;;;15.47;;
11078;SDS011;5592;49.234;7.268;2023-03-07T02:15:11;31.30;;;16.70;;
11078;SDS011;5592;49.234;7.268;2023-03-07T02:17:39;32.67;;;15.97;;
11078;SDS011;5592;49.234;7.268;2023-03-07T02:20:11;38.37;;;17.23;;
11078;SDS011;5592;49.234;7.268;2023-03-07T02:22:42;31.40;;;15.20;;
11078;SDS011;5592;49.234;7.268;2023-03-07T02:25:13;33.97;;;16.90;;
11078;SDS011;5592;49.234;7.268;2023-03-07T02:27:43;29.30;;;15.70;;
11078;SDS011;5592;49.234;7.268;2023-03-07T02:30:11;31.83;;;16.30;;
11078;SDS011;5592;49.234;7.268;2023-03-07T02:32:37;34.80;;;16.10;;
11078;SDS011;5592;49.234;7.268;2023-03-07T02:35:09;33.77;;;16.10;;
11078;SDS011;5592;49.234;7.268;2023-03-07T02:37:37;35.83;;;17.07;;
11078;SDS011;5592;49.234;7.268;2023-03-07T02:40:05;32.53;;;17.63;;
11078;SDS011;5592;49.234;7.268;2023-03-07T02:42:36;32.30;;;15.47;;
11078;SDS011;5592;49.234;7.268;2023-03-07T02:45:05;33.50;;;16.37;;
11078;SDS011;5592;49.234;7.268;2023-03-07T02:47:36;31.23;;;16.33;;
11078;SDS011;5592;49.234;7.268;2023-03-07T02:50:02;33.97;;;16.10;;
11078;SDS011;5592;49.234;7.268;2023-03-07T02:52:29;32.47;;;16.07;;
11078;SDS011;5592;49.234;7.268;2023-03-07T02:54:54;28.40;;;15.67;;
11078;SDS011;5592;49.234;7.268;2023-03-07T02:57:21;35.73;;;15.00;;
11078;SDS011;5592;49.234;7.268;2023-03-07T02:59:47;40.23;;;16.43;;
11078;SDS011;5592;49.234;7.268;2023-03-07T03:02:12;31.83;;;14.87;;
11078;SDS011;5592;49.234;7.268;2023-03-07T03:04:40;28.87;;;15.77;;
11078;SDS011;5592;49.234;7.268;2023-03-07T03:07:05;27.63;;;15.20;;
11078;SDS011;5592;49.234;7.268;2023-03-07T03:09:31;29.43;;;15.00;;
11078;SDS011;5592;49.234;7.268;2023-03-07T03:11:57;37.97;;;17.03;;
11078;SDS011;5592;49.234;7.268;2023-03-07T03:14:23;34.70;;;14.20;;
11078;SDS011;5592;49.234;7.268;2023-03-07T03:16:50;25.60;;;15.00;;
11078;SDS011;5592;49.234;7.268;2023-03-07T03:19:16;28.00;;;14.23;;
11078;SDS011;5592;49.234;7.268;2023-03-07T03:21:45;27.83;;;13.27;;
11078;SDS011;5592;49.234;7.268;2023-03-07T03:24:10;29.10;;;14.20;;
11078;SDS011;5592;49.234;7.268;2023-03-07T03:26:36;27.37;;;14.80;;
11078;SDS011;5592;49.234;7.268;2023-03-07T03:29:02;34.07;;;15.80;;
11078;SDS011;5592;49.234;7.268;2023-03-07T03:31:29;26.67;;;15.03;;
11078;SDS011;5592;49.234;7.268;2023-03-07T03:33:56;24.13;;;13.30;;
11078;SDS011;5592;49.234;7.268;2023-03-07T03:36:22;31.13;;;15.00;;
11078;SDS011;5592;49.234;7.268;2023-03-07T03:38:51;25.07;;;13.30;;
11078;SDS011;5592;49.234;7.268;2023-03-07T03:41:21;26.47;;;14.27;;
11078;SDS011;5592;49.234;7.268;2023-03-07T03:43:47;25.27;;;14.40;;
11078;SDS011;5592;49.234;7.268;2023-03-07T03:46:16;27.37;;;14.67;;
11078;SDS011;5592;49.234;7.268;2023-03-07T03:48:43;24.70;;;12.77;;
11078;SDS011;5592;49.234;7.268;2023-03-07T03:51:19;25.17;;;12.00;;
11078;SDS011;5592;49.234;7.268;2023-03-07T03:53:45;24.87;;;13.73;;
11078;SDS011;5592;49.234;7.268;2023-03-07T03:56:12;23.77;;;13.30;;
11078;SDS011;5592;49.234;7.268;2023-03-07T03:58:43;26.63;;;13.70;;
11078;SDS011;5592;49.234;7.268;2023-03-07T04:01:16;23.57;;;13.77;;
11078;SDS011;5592;49.234;7.268;2023-03-07T04:03:49;31.00;;;13.30;;
11078;SDS011;5592;49.234;7.268;2023-03-07T04:06:17;28.73;;;13.60;;
11078;SDS011;5592;49.234;7.268;2023-03-07T04:08:47;25.03;;;13.63;;
11078;SDS011;5592;49.234;7.268;2023-03-07T04:11:13;24.53;;;13.70;;
11078;SDS011;5592;49.234;7.268;2023-03-07T04:13:39;26.80;;;12.97;;
11078;SDS011;5592;49.234;7.268;2023-03-07T04:16:05;21.50;;;12.53;;
11078;SDS011;5592;49.234;7.268;2023-03-07T04:18:32;21.77;;;12.87;;
11078;SDS011;5592;49.234;7.268;2023-03-07T04:20:58;23.50;;;12.07;;
11078;SDS011;5592;49.234;7.268;2023-03-07T04:23:24;27.70;;;13.00;;
11078;SDS011;5592;49.234;7.268;2023-03-07T04:25:51;24.97;;;14.03;;
11078;SDS011;5592;49.234;7.268;2023-03-07T04:28:22;22.77;;;12.33;;
11078;SDS011;5592;49.234;7.268;2023-03-07T04:30:49;29.03;;;12.90;;
11078;SDS011;5592;49.234;7.268;2023-03-07T04:33:16;23.23;;;12.63;;
11078;SDS011;5592;49.234;7.268;2023-03-07T04:35:42;24.20;;;12.23;;
11078;SDS011;5592;49.234;7.268;2023-03-07T04:38:09;19.83;;;11.77;;
11078;SDS011;5592;49.234;7.268;2023-03-07T04:40:35;29.10;;;12.77;;
11078;SDS011;5592;49.234;7.268;2023-03-07T04:43:01;26.57;;;12.90;;
11078;SDS011;5592;49.234;7.268;2023-03-07T04:45:27;22.17;;;12.07;;
11078;SDS011;5592;49.234;7.268;2023-03-07T04:47:54;22.43;;;12.27;;
11078;SDS011;5592;49.234;7.268;2023-03-07T04:50:20;25.87;;;12.20;;
11078;SDS011;5592;49.234;7.268;2023-03-07T04:52:46;20.23;;;11.70;;
11078;SDS011;5592;49.234;7.268;2023-03-07T04:55:12;20.10;;;11.80;;
11078;SDS011;5592;49.234;7.268;2023-03-07T04:57:40;22.77;;;12.70;;
11078;SDS011;5592;49.234;7.268;2023-03-07T05:00:07;21.20;;;11.57;;
11078;SDS011;5592;49.234;7.268;2023-03-07T05:02:34;18.60;;;8.67;;
11078;SDS011;5592;49.234;7.268;2023-03-07T05:05:00;19.40;;;11.10;;
11078;SDS011;5592;49.234;7.268;2023-03-07T05:07:27;24.13;;;10.93;;
11078;SDS011;5592;49.234;7.268;2023-03-07T05:09:54;19.00;;;10.27;;
11078;SDS011;5592;49.234;7.268;2023-03-07T05:12:20;17.50;;;10.17;;
11078;SDS011;5592;49.234;7.268;2023-03-07T05:14:46;17.60;;;9.57;;
11078;SDS011;5592;49.234;7.268;2023-03-07T05:17:17;18.00;;;10.30;;
11078;SDS011;5592;49.234;7.268;2023-03-07T05:19:44;24.00;;;10.70;;
11078;SDS011;5592;49.234;7.268;2023-03-07T05:22:11;19.47;;;10.63;;
11078;SDS011;5592;49.234;7.268;2023-03-07T05:24:36;21.03;;;10.90;;
11078;SDS011;5592;49.234;7.268;2023-03-07T05:27:02;22.83;;;10.33;;
11078;SDS011;5592;49.234;7.268;2023-03-07T05:29:28;21.20;;;10.57;;
11078;SDS011;5592;49.234;7.268;2023-03-07T05:31:54;18.83;;;10.00;;
11078;SDS011;5592;49.234;7.268;2023-03-07T05:34:19;23.90;;;10.90;;
11078;SDS011;5592;49.234;7.268;2023-03-07T05:36:45;19.37;;;9.40;;
11078;SDS011;5592;49.234;7.268;2023-03-07T05:39:11;19.13;;;9.90;;
11078;SDS011;5592;49.234;7.268;2023-03-07T05:41:39;22.30;;;11.47;;
11078;SDS011;5592;49.234;7.268;2023-03-07T05:44:05;19.50;;;10.53;;
11078;SDS011;5592;49.234;7.268;2023-03-07T05:46:30;19.57;;;11.13;;
11078;SDS011;5592;49.234;7.268;2023-03-07T05:48:56;20.17;;;11.00;;
11078;SDS011;5592;49.234;7.268;2023-03-07T05:51:21;19.67;;;9.77;;
11078;SDS011;5592;49.234;7.268;2023-03-07T05:53:47;17.37;;;9.13;;
11078;SDS011;5592;49.234;7.268;2023-03-07T05:56:13;18.97;;;10.03;;
11078;SDS011;5592;49.234;7.268;2023-03-07T05:58:38;17.63;;;9.87;;
11078;SDS011;5592;49.234;7.268;2023-03-07T06:01:04;18.30;;;9.57;;
11078;SDS011;5592;49.234;7.268;2023-03-07T06:03:32;17.53;;;8.57;;
11078;SDS011;5592;49.234;7.268;2023-03-07T06:05:58;22.03;;;10.23;;
11078;SDS011;5592;49.234;7.268;2023-03-07T06:08:24;20.23;;;10.60;;
11078;SDS011;5592;49.234;7.268;2023-03-07T06:10:51;20.30;;;9.40;;
11078;SDS011;5592;49.234;7.268;2023-03-07T06:13:21;17.20;;;9.33;;
11078;SDS011;5592;49.234;7.268;2023-03-07T06:15:52;19.07;;;9.90;;
11078;SDS011;5592;49.234;7.268;2023-03-07T06:18:21;15.87;;;9.17;;
11078;SDS011;5592;49.234;7.268;2023-03-07T06:21:09;14.23;;;9.20;;
11078;SDS011;5592;49.234;7.268;2023-03-07T06:23:38;13.73;;;8.43;;
11078;SDS011;5592;49.234;7.268;2023-03-07T06:26:04;22.33;;;9.37;;
11078;SDS011;5592;49.234;7.268;2023-03-07T06:28:31;14.10;;;9.37;;
11078;SDS011;5592;49.234;7.268;2023-03-07T06:30:57;17.53;;;10.07;;
11078;SDS011;5592;49.234;7.268;2023-03-07T06:33:22;13.53;;;7.70;;
11078;SDS011;5592;49.234;7.268;2023-03-07T06:35:48;14.53;;;8.13;;
11078;SDS011;5592;49.234;7.268;2023-03-07T06:38:15;18.07;;;9.07;;
11078;SDS011;5592;49.234;7.268;2023-03-07T06:40:41;14.47;;;8.60;;
11078;SDS011;5592;49.234;7.268;2023-03-07T06:43:06;19.47;;;9.73;;
11078;SDS011;5592;49.234;7.268;2023-03-07T06:45:33;20.47;;;9.30;;
11078;SDS011;5592;49.234;7.268;2023-03-07T06:48:00;17.10;;;8.87;;
11078;SDS011;5592;49.234;7.268;2023-03-07T06:50:26;15.13;;;8.70;;
11078;SDS011;5592;49.234;7.268;2023-03-07T06:52:52;24.50;;;8.87;;
11078;SDS011;5592;49.234;7.268;2023-03-07T06:55:17;16.20;;;9.07;;
11078;SDS011;5592;49.234;7.268;2023-03-07T06:57:43;14.70;;;8.70;;
11078;SDS011;5592;49.234;7.268;2023-03-07T07:00:12;16.10;;;8.77;;
11078;SDS011;5592;49.234;7.268;2023-03-07T07:02:38;17.53;;;9.17;;
11078;SDS011;5592;49.234;7.268;2023-03-07T07:05:09;16.97;;;8.10;;
11078;SDS011;5592;49.234;7.268;2023-03-07T07:07:35;14.40;;;7.87;;
11078;SDS011;5592;49.234;7.268;2023-03-07T07:10:01;15.23;;;8.40;;
11078;SDS011;5592;49.234;7.268;2023-03-07T07:12:27;13.43;;;8.20;;
11078;SDS011;5592;49.234;7.268;2023-03-07T07:14:57;13.33;;;8.27;;
11078;SDS011;5592;49.234;7.268;2023-03-07T07:17:26;13.67;;;7.53;;
11078;SDS011;5592;49.234;7.268;2023-03-07T07:19:58;19.43;;;8.57;;
11078;SDS011;5592;49.234;7.268;2023-03-07T07:22:30;18.97;;;9.03;;
11078;SDS011;5592;49.234;7.268;2023-03-07T07:24:56;16.70;;;8.60;;
11078;SDS011;5592;49.234;7.268;2023-03-07T07:27:26;16.17;;;7.70;;
11078;SDS011;5592;49.234;7.268;2023-03-07T07:32:30;14.47;;;8.73;;
11078;SDS011;5592;49.234;7.268;2023-03-07T07:35:11;10.00;;;7.17;;
11078;SDS011;5592;49.234;7.268;2023-03-07T07:40:15;14.07;;;7.90;;
11078;SDS011;5592;49.234;7.268;2023-03-07T07:42:41;11.70;;;7.47;;
11078;SDS011;5592;49.234;7.268;2023-03-07T07:45:07;14.07;;;8.77;;
11078;SDS011;5592;49.234;7.268;2023-03-07T07:47:33;13.70;;;7.60;;
11078;SDS011;5592;49.234;7.268;2023-03-07T07:49:59;14.53;;;8.13;;
11078;SDS011;5592;49.234;7.268;2023-03-07T07:52:27;14.90;;;8.10;;
11078;SDS011;5592;49.234;7.268;2023-03-07T07:54:53;13.87;;;6.90;;
11078;SDS011;5592;49.234;7.268;2023-03-07T07:57:18;12.33;;;7.83;;
11078;SDS011;5592;49.234;7.268;2023-03-07T07:59:44;12.90;;;7.80;;
11078;SDS011;5592;49.234;7.268;2023-03-07T08:02:11;14.50;;;8.07;;
11078;SDS011;5592;49.234;7.268;2023-03-07T08:04:37;11.80;;;7.27;;
11078;SDS011;5592;49.234;7.268;2023-03-07T08:07:03;14.53;;;8.33;;
11078;SDS011;5592;49.234;7.268;2023-03-07T08:09:29;16.20;;;8.00;;
11078;SDS011;5592;49.234;7.268;2023-03-07T08:11:59;11.80;;;7.40;;
11078;SDS011;5592;49.234;7.268;2023-03-07T08:14:24;11.10;;;6.87;;
11078;SDS011;5592;49.234;7.268;2023-03-07T08:16:50;13.60;;;8.53;;
11078;SDS011;5592;49.234;7.268;2023-03-07T08:19:15;11.30;;;7.10;;
11078;SDS011;5592;49.234;7.268;2023-03-07T08:21:41;10.43;;;7.63;;
11078;SDS011;5592;49.234;7.268;2023-03-07T08:24:07;14.60;;;7.60;;
11078;SDS011;5592;49.234;7.268;2023-03-07T08:26:33;12.80;;;7.60;;
11078;SDS011;5592;49.234;7.268;2023-03-07T08:29:00;11.70;;;6.83;;
11078;SDS011;5592;49.234;7.268;2023-03-07T08:31:26;16.47;;;9.07;;
11078;SDS011;5592;49.234;7.268;2023-03-07T08:34:13;17.63;;;8.60;;
11078;SDS011;5592;49.234;7.268;2023-03-07T08:36:39;16.60;;;8.83;;
11078;SDS011;5592;49.234;7.268;2023-03-07T08:39:05;13.30;;;8.30;;
11078;SDS011;5592;49.234;7.268;2023-03-07T08:41:31;12.30;;;7.60;;
11078;SDS011;5592;49.234;7.268;2023-03-07T08:43:57;11.80;;;7.40;;
11078;SDS011;5592;49.234;7.268;2023-03-07T08:46:22;14.97;;;7.80;;
11078;SDS011;5592;49.234;7.268;2023-03-07T08:48:48;11.67;;;7.30;;
11078;SDS011;5592;49.234;7.268;2023-03-07T08:51:14;14.10;;;8.40;;
11078;SDS011;5592;49.234;7.268;2023-03-07T08:53:41;11.47;;;7.13;;
11078;SDS011;5592;49.234;7.268;2023-03-07T08:56:09;15.67;;;8.70;;
11078;SDS011;5592;49.234;7.268;2023-03-07T08:58:36;16.00;;;8.37;;
11078;SDS011;5592;49.234;7.268;2023-03-07T09:01:02;17.43;;;7.97;;
11078;SDS011;5592;49.234;7.268;2023-03-07T09:03:29;14.50;;;8.30;;
11078;SDS011;5592;49.234;7.268;2023-03-07T09:05:54;13.30;;;8.07;;
11078;SDS011;5592;49.234;7.268;2023-03-07T09:08:20;15.97;;;8.60;;
11078;SDS011;5592;49.234;7.268;2023-03-07T09:10:45;13.27;;;7.83;;
11078;SDS011;5592;49.234;7.268;2023-03-07T09:13:14;12.23;;;8.27;;
11078;SDS011;5592;49.234;7.268;2023-03-07T09:15:42;12.07;;;8.23;;
11078;SDS011;5592;49.234;7.268;2023-03-07T09:18:08;15.43;;;8.70;;
11078;SDS011;5592;49.234;7.268;2023-03-07T09:20:36;16.80;;;8.47;;
11078;SDS011;5592;49.234;7.268;2023-03-07T09:23:02;15.60;;;9.60;;
11078;SDS011;5592;49.234;7.268;2023-03-07T09:25:28;14.30;;;9.00;;
11078;SDS011;5592;49.234;7.268;2023-03-07T09:27:54;18.27;;;8.60;;
11078;SDS011;5592;49.234;7.268;2023-03-07T09:30:23;12.73;;;7.70;;
11078;SDS011;5592;49.234;7.268;2023-03-07T09:32:51;13.40;;;8.70;;
11078;SDS011;5592;49.234;7.268;2023-03-07T09:35:16;12.33;;;7.83;;
11078;SDS011;5592;49.234;7.268;2023-03-07T09:37:45;17.70;;;9.20;;
11078;SDS011;5592;49.234;7.268;2023-03-07T09:40:16;16.63;;;9.00;;
11078;SDS011;5592;49.234;7.268;2023-03-07T09:50:56;13.67;;;8.20;;
11078;SDS011;5592;49.234;7.268;2023-03-07T10:01:36;13.47;;;8.57;;
11078;SDS011;5592;49.234;7.268;2023-03-07T10:04:05;14.33;;;8.27;;
11078;SDS011;5592;49.234;7.268;2023-03-07T10:06:41;16.27;;;9.20;;
11078;SDS011;5592;49.234;7.268;2023-03-07T10:09:11;11.03;;;7.53;;
11078;SDS011;5592;49.234;7.268;2023-03-07T10:11:53;16.80;;;10.00;;
11078;SDS011;5592;49.234;7.268;2023-03-07T10:20:23;15.73;;;9.50;;
11078;SDS011;5592;49.234;7.268;2023-03-07T10:25:33;14.20;;;9.40;;
11078;SDS011;5592;49.234;7.268;2023-03-07T10:30:35;14.27;;;9.50;;
11078;SDS011;5592;49.234;7.268;2023-03-07T10:33:00;14.63;;;8.20;;
11078;SDS011;5592;49.234;7.268;2023-03-07T10:35:40;18.87;;;8.43;;
11078;SDS011;5592;49.234;7.268;2023-03-07T10:41:01;17.53;;;8.73;;
11078;SDS011;5592;49.234;7.268;2023-03-07T10:43:33;16.17;;;8.50;;
11078;SDS011;5592;49.234;7.268;2023-03-07T10:46:00;14.10;;;9.07;;
11078;SDS011;5592;49.234;7.268;2023-03-07T10:51:42;12.40;;;8.03;;
11078;SDS011;5592;49.234;7.268;2023-03-07T10:54:37;14.43;;;8.90;;
11078;SDS011;5592;49.234;7.268;2023-03-07T10:57:08;19.97;;;8.80;;
11078;SDS011;5592;49.234;7.268;2023-03-07T10:59:43;15.90;;;9.50;;
11078;SDS011;5592;49.234;7.268;2023-03-07T11:02:34;14.73;;;9.40;;
11078;SDS011;5592;49.234;7.268;2023-03-07T11:05:07;10.70;;;7.37;;
11078;SDS011;5592;49.234;7.268;2023-03-07T11:07:48;14.13;;;9.73;;
11078;SDS011;5592;49.234;7.268;2023-03-07T11:10:24;12.83;;;7.60;;
11078;SDS011;5592;49.234;7.268;2023-03-07T11:12:58;11.13;;;8.13;;
11078;SDS011;5592;49.234;7.268;2023-03-07T11:15:41;16.30;;;9.00;;
11078;SDS011;5592;49.234;7.268;2023-03-07T11:18:30;12.40;;;9.13;;
11078;SDS011;5592;49.234;7.268;2023-03-07T11:20:56;14.07;;;8.67;;
11078;SDS011;5592;49.234;7.268;2023-03-07T11:23:23;13.17;;;8.60;;
11078;SDS011;5592;49.234;7.268;2023-03-07T11:25:51;14.97;;;8.17;;
11078;SDS011;5592;49.234;7.268;2023-03-07T11:28:30;10.77;;;7.80;;
11078;SDS011;5592;49.234;7.268;2023-03-07T11:33:49;14.17;;;8.50;;
11078;SDS011;5592;49.234;7.268;2023-03-07T11:36:38;11.80;;;7.27;;
11078;SDS011;5592;49.234;7.268;2023-03-07T11:41:58;12.70;;;7.90;;
11078;SDS011;5592;49.234;7.268;2023-03-07T11:44:35;11.97;;;7.83;;
11078;SDS011;5592;49.234;7.268;2023-03-07T11:58:49;16.40;;;7.13;;
11078;SDS011;5592;49.234;7.268;2023-03-07T12:23:12;14.57;;;6.77;;
11078;SDS011;5592;49.234;7.268;2023-03-07T12:25:52;11.37;;;7.00;;
11078;SDS011;5592;49.234;7.268;2023-03-07T12:28:23;11.87;;;6.30;;
11078;SDS011;5592;49.234;7.268;2023-03-07T12:44:50;12.53;;;7.47;;
11078;SDS011;5592;49.234;7.268;2023-03-07T12:47:29;12.07;;;7.17;;
11078;SDS011;5592;49.234;7.268;2023-03-07T12:53:24;12.77;;;6.77;;
11078;SDS011;5592;49.234;7.268;2023-03-07T12:56:01;12.33;;;6.97;;
11078;SDS011;5592;49.234;7.268;2023-03-07T13:06:34;12.40;;;7.00;;
11078;SDS011;5592;49.234;7.268;2023-03-07T13:09:05;10.90;;;6.67;;
11078;SDS011;5592;49.234;7.268;2023-03-07T13:11:41;10.03;;;6.13;;
11078;SDS011;5592;49.234;7.268;2023-03-07T13:30:19;13.97;;;6.40;;
11078;SDS011;5592;49.234;7.268;2023-03-07T13:38:01;10.80;;;5.80;;
11078;SDS011;5592;49.234;7.268;2023-03-07T13:55:56;10.60;;;6.37;;
11078;SDS011;5592;49.234;7.268;2023-03-07T13:58:38;10.90;;;7.03;;
11078;SDS011;5592;49.234;7.268;2023-03-07T14:04:12;10.87;;;7.47;;
11078;SDS011;5592;49.234;7.268;2023-03-07T14:06:41;10.10;;;6.50;;
11078;SDS011;5592;49.234;7.268;2023-03-07T14:09:18;9.20;;;6.10;;
11078;SDS011;5592;49.234;7.268;2023-03-07T14:12:02;9.20;;;5.80;;
11078;SDS011;5592;49.234;7.268;2023-03-07T14:25:32;9.23;;;5.97;;
11078;SDS011;5592;49.234;7.268;2023-03-07T14:28:00;11.43;;;7.00;;
11078;SDS011;5592;49.234;7.268;2023-03-07T14:30:30;9.50;;;5.73;;
11078;SDS011;5592;49.234;7.268;2023-03-07T14:32:57;11.20;;;6.30;;
11078;SDS011;5592;49.234;7.268;2023-03-07T14:38:07;6.40;;;4.73;;
11078;SDS011;5592;49.234;7.268;2023-03-07T14:46:05;7.53;;;5.60;;
11078;SDS011;5592;49.234;7.268;2023-03-07T14:49:16;9.10;;;6.27;;
11078;SDS011;5592;49.234;7.268;2023-03-07T14:51:47;9.20;;;5.80;;
11078;SDS011;5592;49.234;7.268;2023-03-07T14:54:14;10.83;;;5.70;;
11078;SDS011;5592;49.234;7.268;2023-03-07T14:56:41;13.07;;;5.93;;
11078;SDS011;5592;49.234;7.268;2023-03-07T14:59:10;10.90;;;6.23;;
11078;SDS011;5592;49.234;7.268;2023-03-07T15:01:37;10.13;;;6.00;;
11078;SDS011;5592;49.234;7.268;2023-03-07T15:04:24;9.10;;;5.70;;
11078;SDS011;5592;49.234;7.268;2023-03-07T15:06:56;10.10;;;6.23;;
11078;SDS011;5592;49.234;7.268;2023-03-07T15:09:22;9.00;;;5.60;;
11078;SDS011;5592;49.234;7.268;2023-03-07T15:11:51;14.63;;;6.40;;
11078;SDS011;5592;49.234;7.268;2023-03-07T15:14:31;8.20;;;5.70;;
11078;SDS011;5592;49.234;7.268;2023-03-07T15:17:45;10.53;;;5.10;;
11078;SDS011;5592;49.234;7.268;2023-03-07T15:20:20;10.20;;;5.80;;
11078;SDS011;5592;49.234;7.268;2023-03-07T15:22:49;10.60;;;5.90;;
11078;SDS011;5592;49.234;7.268;2023-03-07T15:25:19;9.50;;;6.00;;
11078;SDS011;5592;49.234;7.268;2023-03-07T15:30:24;11.00;;;6.30;;
11078;SDS011;5592;49.234;7.268;2023-03-07T15:35:35;10.50;;;5.47;;
11078;SDS011;5592;49.234;7.268;2023-03-07T15:38:20;10.23;;;6.37;;
11078;SDS011;5592;49.234;7.268;2023-03-07T15:40:47;8.77;;;5.43;;
11078;SDS011;5592;49.234;7.268;2023-03-07T15:43:15;10.43;;;5.80;;
11078;SDS011;5592;49.234;7.268;2023-03-07T15:51:16;9.43;;;5.03;;
11078;SDS011;5592;49.234;7.268;2023-03-07T15:53:56;8.33;;;5.40;;
11078;SDS011;5592;49.234;7.268;2023-03-07T15:56:28;8.93;;;5.30;;
11078;SDS011;5592;49.234;7.268;2023-03-07T15:59:03;8.43;;;5.27;;
11078;SDS011;5592;49.234;7.268;2023-03-07T16:01:41;9.70;;;5.13;;
11078;SDS011;5592;49.234;7.268;2023-03-07T16:04:24;7.40;;;3.83;;
11078;SDS011;5592;49.234;7.268;2023-03-07T16:07:01;5.93;;;4.37;;
11078;SDS011;5592;49.234;7.268;2023-03-07T16:09:27;11.70;;;4.40;;
11078;SDS011;5592;49.234;7.268;2023-03-07T16:11:52;7.83;;;5.03;;
11078;SDS011;5592;49.234;7.268;2023-03-07T16:14:21;7.47;;;5.07;;
11078;SDS011;5592;49.234;7.268;2023-03-07T16:16:58;9.40;;;5.10;;
11078;SDS011;5592;49.234;7.268;2023-03-07T16:19:26;7.77;;;5.53;;
11078;SDS011;5592;49.234;7.268;2023-03-07T16:21:52;7.40;;;4.50;;
11078;SDS011;5592;49.234;7.268;2023-03-07T16:24:17;8.00;;;5.00;;
11078;SDS011;5592;49.234;7.268;2023-03-07T16:26:43;8.83;;;5.40;;
11078;SDS011;5592;49.234;7.268;2023-03-07T16:29:20;8.70;;;5.90;;
11078;SDS011;5592;49.234;7.268;2023-03-07T16:31:47;8.87;;;5.40;;
11078;SDS011;5592;49.234;7.268;2023-03-07T16:34:13;10.03;;;5.40;;
11078;SDS011;5592;49.234;7.268;2023-03-07T16:36:40;11.57;;;6.07;;
11078;SDS011;5592;49.234;7.268;2023-03-07T16:39:07;9.13;;;5.70;;
11078;SDS011;5592;49.234;7.268;2023-03-07T16:41:33;9.90;;;5.87;;
11078;SDS011;5592;49.234;7.268;2023-03-07T16:44:03;8.07;;;5.40;;
11078;SDS011;5592;49.234;7.268;2023-03-07T16:46:28;9.47;;;5.70;;
11078;SDS011;5592;49.234;7.268;2023-03-07T16:48:54;7.30;;;5.50;;
11078;SDS011;5592;49.234;7.268;2023-03-07T16:51:21;9.60;;;6.57;;
11078;SDS011;5592;49.234;7.268;2023-03-07T16:53:48;9.40;;;5.20;;
11078;SDS011;5592;49.234;7.268;2023-03-07T16:56:21;11.47;;;5.60;;
11078;SDS011;5592;49.234;7.268;2023-03-07T16:58:56;11.73;;;5.73;;
11078;SDS011;5592;49.234;7.268;2023-03-07T17:01:23;13.73;;;6.43;;
11078;SDS011;5592;49.234;7.268;2023-03-07T17:03:49;11.00;;;5.50;;
11078;SDS011;5592;49.234;7.268;2023-03-07T17:06:15;12.97;;;6.53;;
11078;SDS011;5592;49.234;7.268;2023-03-07T17:08:41;10.07;;;5.00;;
11078;SDS011;5592;49.234;7.268;2023-03-07T17:11:12;10.50;;;5.63;;
11078;SDS011;5592;49.234;7.268;2023-03-07T17:13:54;11.00;;;5.53;;
11078;SDS011;5592;49.234;7.268;2023-03-07T17:16:23;12.03;;;6.60;;
11078;SDS011;5592;49.234;7.268;2023-03-07T17:18:49;10.50;;;6.60;;
11078;SDS011;5592;49.234;7.268;2023-03-07T17:21:17;12.30;;;5.80;;
11078;SDS011;5592;49.234;7.268;2023-03-07T17:23:44;10.40;;;6.50;;
11078;SDS011;5592;49.234;7.268;2023-03-07T17:26:33;10.30;;;6.40;;
11078;SDS011;5592;49.234;7.268;2023-03-07T17:29:01;8.90;;;5.20;;
11078;SDS011;5592;49.234;7.268;2023-03-07T17:31:29;7.80;;;4.73;;
11078;SDS011;5592;49.234;7.268;2023-03-07T17:33:55;9.20;;;5.37;;
11078;SDS011;5592;49.234;7.268;2023-03-07T17:36:20;9.80;;;6.67;;
11078;SDS011;5592;49.234;7.268;2023-03-07T17:38:46;7.63;;;4.83;;
11078;SDS011;5592;49.234;7.268;2023-03-07T17:41:12;7.77;;;5.37;;
11078;SDS011;5592;49.234;7.268;2023-03-07T17:43:38;9.33;;;5.57;;
11078;SDS011;5592;49.234;7.268;2023-03-07T17:46:07;12.23;;;5.40;;
11078;SDS011;5592;49.234;7.268;2023-03-07T17:48:33;14.93;;;6.57;;
11078;SDS011;5592;49.234;7.268;2023-03-07T17:50:59;10.00;;;5.80;;
11078;SDS011;5592;49.234;7.268;2023-03-07T17:53:26;10.10;;;6.53;;
11078;SDS011;5592;49.234;7.268;2023-03-07T17:55:51;10.30;;;6.30;;